Time;durP1;ratioP1;P1;durP2;ratioP2;P2;SDS_P1;SDS_P2;PMS_P1;PMS_P2;Temp;Humidity;BMP_temperature;BMP_pressure;BME280_temperature;BME280_humidity;BME280_pressure;Samples;Min_cycle;Max_cycle;Signal;HPM_P1;HPM_P2
2023/12/10 00:02:11;;;;;;;;;1.00;1.00;;;;;19.27;43.91;100670.28;5016933;28;45328;-76
2023/12/10 00:04:38;;;;;;;;;3.00;2.00;;;;;19.05;44.26;100670.34;5016417;28;45503;-77
2023/12/10 00:07:04;;;;;;;;;3.00;2.00;;;;;19.33;43.96;100666.16;5016956;28;45305;-76
2023/12/10 00:09:29;;;;;;;;;3.00;2.00;;;;;19.28;43.96;100672.00;5017093;28;46302;-75
2023/12/10 00:11:54;;;;;;;;;2.25;2.25;;;;;19.11;44.36;100677.09;5016436;28;55244;-76
2023/12/10 00:14:20;;;;;;;;;4.25;3.25;;;;;19.34;44.29;100688.78;5016948;28;52053;-75
2023/12/10 00:16:45;;;;;;;;;3.00;2.00;;;;;19.59;43.87;100688.50;5017161;28;48876;-75
2023/12/10 00:19:11;;;;;;;;;4.50;1.75;;;;;19.60;43.94;100701.09;4999143;28;46094;-75
2023/12/10 00:21:37;;;;;;;;;4.25;1.00;;;;;19.73;43.41;100685.50;5016969;28;45177;-76
2023/12/10 00:24:03;;;;;;;;;7.50;2.00;;;;;19.57;43.76;100676.88;5017094;28;45585;-75
2023/12/10 00:26:28;;;;;;;;;3.50;1.00;;;;;19.12;44.12;100648.94;5017006;28;45618;-75
2023/12/10 00:28:53;;;;;;;;;1.50;1.50;;;;;19.57;43.80;100695.91;5014511;28;45384;-75
2023/12/10 05:32:36;;;;;;;;;2.50;1.75;;;;;18.90;46.07;100974.00;5022747;27;46147;-77
2023/12/10 05:35:01;;;;;;;;;8.00;3.00;;;;;18.88;46.01;100984.09;5015850;28;45306;-78
2023/12/10 05:37:27;;;;;;;;;4.00;2.00;;;;;18.87;46.04;100987.84;5015632;28;45386;-80
2023/12/10 05:39:52;;;;;;;;;6.75;3.00;;;;;18.80;46.01;100981.09;5016074;28;45519;-77
2023/12/10 05:42:17;;;;;;;;;5.00;2.00;;;;;18.92;45.89;100992.91;4997359;28;52819;-78
2023/12/10 05:44:43;;;;;;;;;3.00;1.50;;;;;19.01;45.77;100999.47;5015898;28;45988;-78
2023/12/10 05:47:08;;;;;;;;;3.75;2.25;;;;;18.71;46.39;100984.56;5015839;28;45263;-78
2023/12/10 05:49:33;;;;;;;;;5.50;1.00;;;;;18.92;45.93;101006.47;4997884;28;45422;-78
2023/12/10 05:51:58;;;;;;;;;4.25;2.50;;;;;18.82;46.22;101002.72;5015396;28;45420;-77
2023/12/10 05:54:24;;;;;;;;;1.00;0.50;;;;;18.96;45.73;100972.66;5015234;28;54012;-76
2023/12/10 05:56:49;;;;;;;;;0.00;0.00;;;;;18.96;45.66;101005.28;5015135;28;57475;-77
2023/12/10 05:59:15;;;;;;;;;3.75;3.75;;;;;19.05;45.58;101012.72;5015305;28;52559;-78
2023/12/10 06:01:41;;;;;;;;;1.25;1.25;;;;;19.11;45.71;101011.38;4997578;28;45443;-77
2023/12/10 06:04:06;;;;;;;;;2.50;1.50;;;;;19.12;45.22;101018.53;5015466;28;45378;-76
2023/12/10 06:06:32;;;;;;;;;7.25;2.00;;;;;18.57;46.75;101024.56;5015295;28;45400;-76
2023/12/10 06:08:57;;;;;;;;;1.50;1.00;;;;;18.80;46.25;101018.28;5015500;28;45317;-78
2023/12/10 06:11:22;;;;;;;;;2.75;2.00;;;;;18.58;46.22;101001.88;5015200;28;48336;-78
2023/12/10 06:13:47;;;;;;;;;5.50;1.00;;;;;18.51;46.57;101013.16;5015384;28;46132;-78
2023/12/10 06:16:13;;;;;;;;;2.00;2.00;;;;;18.59;46.28;101011.75;5015421;28;45405;-78
2023/12/10 06:18:38;;;;;;;;;3.00;2.75;;;;;18.42;46.38;100986.69;5014601;28;45481;-78
2023/12/10 06:21:04;;;;;;;;;6.00;2.00;;;;;18.38;46.95;101001.47;5014872;28;45206;-79
2023/12/10 06:23:30;;;;;;;;;8.00;2.00;;;;;18.78;46.22;101009.41;5014778;28;45424;-76
2023/12/10 06:25:55;;;;;;;;;3.50;1.50;;;;;18.82;46.04;101013.59;5014879;28;45479;-78
2023/12/10 06:28:21;;;;;;;;;4.75;1.00;;;;;18.29;46.56;100955.16;5013907;28;54924;-76
2023/12/10 06:30:46;;;;;;;;;9.00;4.00;;;;;18.67;46.36;100990.31;5014816;28;46666;-79
2023/12/10 06:33:11;;;;;;;;;5.25;2.00;;;;;18.44;46.91;101001.03;5014131;28;57799;-78
2023/12/10 06:35:37;;;;;;;;;3.00;3.00;;;;;18.65;46.64;101003.13;5014678;28;48709;-78
2023/12/10 06:38:02;;;;;;;;;7.00;2.25;;;;;18.68;46.61;101011.06;5014555;28;45329;-78
2023/12/10 06:40:27;;;;;;;;;3.00;1.50;;;;;18.73;46.58;101003.44;5014692;28;45305;-77
2023/12/10 06:42:53;;;;;;;;;1.75;1.50;;;;;18.89;46.15;101012.13;5014727;28;46114;-79
2023/12/10 06:45:19;;;;;;;;;4.00;1.00;;;;;18.73;46.23;100995.28;5014898;28;45624;-78
2023/12/10 06:47:45;;;;;;;;;1.50;1.00;;;;;18.72;46.32;101012.56;5015215;28;45480;-77
2023/12/10 06:50:10;;;;;;;;;3.00;3.00;;;;;18.73;46.44;101009.72;5014414;28;45284;-78
2023/12/10 06:52:35;;;;;;;;;2.00;2.00;;;;;18.60;46.70;100983.63;5014038;28;46701;-78
2023/12/10 06:55:00;;;;;;;;;1.50;1.00;;;;;18.84;46.30;101012.50;5013817;28;45769;-78
2023/12/10 06:57:26;;;;;;;;;7.25;2.00;;;;;18.96;45.86;101009.84;5015011;28;45500;-78
2023/12/10 06:59:51;;;;;;;;;11.25;3.00;;;;;18.78;46.40;101029.28;4996333;28;45562;-77
2023/12/10 07:02:16;;;;;;;;;2.25;2.00;;;;;18.43;47.18;101020.16;5009774;28;47547;-79
2023/12/10 07:04:42;;;;;;;;;9.25;4.50;;;;;18.19;47.14;101001.13;5012208;28;45970;-77
2023/12/10 07:07:07;;;;;;;;;3.25;2.25;;;;;18.49;47.14;101033.25;5014762;28;45523;-77
2023/12/10 07:09:32;;;;;;;;;6.00;2.00;;;;;18.63;46.75;101005.13;4996371;28;46151;-79
2023/12/10 07:11:58;;;;;;;;;4.00;3.00;;;;;18.49;47.13;101044.13;5014355;28;52302;-78
2023/12/10 07:14:23;;;;;;;;;3.75;2.00;;;;;18.69;46.75;101031.81;5014194;28;56533;-78
2023/12/10 07:16:48;;;;;;;;;9.75;4.25;;;;;19.00;46.30;101031.22;5014385;28;45381;-78
2023/12/10 07:19:14;;;;;;;;;5.25;3.75;;;;;19.06;45.94;101014.44;5013915;28;51613;-78
2023/12/10 07:21:39;;;;;;;;;4.50;3.00;;;;;19.14;45.25;101020.13;5014054;28;46908;-77
2023/12/10 07:24:05;;;;;;;;;2.50;2.25;;;;;19.13;45.88;101051.06;5014205;28;45297;-78
2023/12/10 07:26:31;;;;;;;;;2.00;1.25;;;;;19.15;45.97;101053.63;5014349;28;48767;-80
2023/12/10 07:28:56;;;;;;;;;4.75;2.00;;;;;19.18;45.92;101045.25;5014194;28;45388;-79
2023/12/10 07:31:22;;;;;;;;;2.50;2.00;;;;;19.00;45.97;101025.78;5014530;28;45646;-79
2023/12/10 07:33:47;;;;;;;;;4.75;2.00;;;;;19.13;46.03;101053.78;5014726;28;45447;-78
2023/12/10 07:36:14;;;;;;;;;4.25;2.75;;;;;19.06;45.91;101054.31;4996905;28;45398;-78
2023/12/10 07:38:40;;;;;;;;;2.50;1.50;;;;;19.26;45.78;101046.38;4996283;28;45433;-79
2023/12/10 07:41:06;;;;;;;;;1.00;1.00;;;;;19.22;45.87;101046.75;5014454;28;45527;-77
2023/12/10 07:43:31;;;;;;;;;2.00;2.00;;;;;19.25;45.68;101041.06;5014125;28;45327;-77
2023/12/10 07:45:57;;;;;;;;;5.00;2.50;;;;;19.30;45.72;101060.63;5014610;28;45371;-77
2023/12/10 07:48:22;;;;;;;;;5.75;3.00;;;;;19.17;45.67;101024.47;5015096;28;45380;-87
2023/12/10 07:50:48;;;;;;;;;4.50;3.00;;;;;19.16;45.63;101039.91;5014483;28;45434;-80
2023/12/10 07:53:14;;;;;;;;;3.75;2.00;;;;;19.31;45.65;101018.81;4996527;28;45377;-81
2023/12/10 07:55:39;;;;;;;;;5.00;3.50;;;;;19.56;45.15;101042.31;5012811;28;45380;-78
2023/12/10 07:58:04;;;;;;;;;3.00;1.50;;;;;19.60;45.02;101028.34;5011759;28;45510;-83
2023/12/10 08:00:30;;;;;;;;;4.00;2.00;;;;;19.55;45.04;101029.69;5009772;28;46337;-77
2023/12/10 08:02:55;;;;;;;;;8.25;3.00;;;;;19.48;45.27;101033.88;5011380;28;45493;-77
2023/12/10 08:05:21;;;;;;;;;7.25;4.00;;;;;19.27;45.79;101031.81;5013845;28;53853;-76
2023/12/10 08:07:46;;;;;;;;;1.25;1.25;;;;;19.30;45.61;101011.69;5017159;28;45368;-80
2023/12/10 08:10:12;;;;;;;;;2.00;2.00;;;;;19.00;45.98;100998.59;5017681;28;45420;-75
2023/12/10 08:12:38;;;;;;;;;3.75;3.75;;;;;19.30;45.81;101017.13;4999255;28;45444;-78
2023/12/10 08:15:04;;;;;;;;;4.25;2.00;;;;;19.24;45.65;101018.44;4999418;28;45245;-83
2023/12/10 08:17:30;;;;;;;;;2.50;2.50;;;;;19.37;45.71;101012.94;5017345;28;45518;-75
2023/12/10 08:19:55;;;;;;;;;4.75;3.00;;;;;19.55;45.33;101022.41;5017274;28;45634;-77
2023/12/10 08:22:20;;;;;;;;;3.00;1.00;;;;;19.54;45.29;101023.38;5016376;28;45552;-75
2023/12/10 08:24:46;;;;;;;;;3.50;1.50;;;;;19.58;45.13;101011.25;5017412;28;45329;-75
2023/12/10 08:27:11;;;;;;;;;2.50;1.50;;;;;19.53;45.38;101028.94;5016897;28;45364;-76
2023/12/10 08:29:36;;;;;;;;;2.50;2.50;;;;;19.40;45.44;101023.56;5017104;28;46181;-74
2023/12/10 08:32:02;;;;;;;;;3.00;3.00;;;;;19.52;45.37;101038.09;5016524;28;46444;-76
2023/12/10 08:34:27;;;;;;;;;5.00;3.50;;;;;19.54;45.35;101049.72;4999169;28;45522;-76
2023/12/10 08:36:52;;;;;;;;;11.75;2.00;;;;;19.59;45.19;101042.91;5016370;28;52649;-76
2023/12/10 08:39:18;;;;;;;;;3.25;2.50;;;;;19.76;44.75;101032.56;5016459;28;55472;-77
2023/12/10 08:41:43;;;;;;;;;3.00;3.00;;;;;19.63;45.15;101029.97;5016500;28;45540;-76
2023/12/10 08:44:08;;;;;;;;;2.75;2.75;;;;;19.65;45.56;101037.00;5017123;28;45435;-76
2023/12/10 08:46:34;;;;;;;;;7.75;2.50;;;;;19.55;45.47;101038.72;5016986;28;45694;-76
2023/12/10 08:48:59;;;;;;;;;3.00;2.00;;;;;19.62;45.46;101033.66;5016797;28;45353;-75
2023/12/10 08:51:25;;;;;;;;;4.00;2.00;;;;;19.55;45.54;101040.56;5016544;28;45337;-76
2023/12/10 08:53:51;;;;;;;;;4.50;4.25;;;;;19.66;45.34;101032.41;5016198;28;45588;-75
2023/12/10 08:56:16;;;;;;;;;4.25;2.25;;;;;19.51;45.81;101026.34;5016645;28;45258;-79
2023/12/10 08:58:41;;;;;;;;;4.00;3.50;;;;;19.30;46.08;101006.25;4998633;28;47450;-78
2023/12/10 09:01:06;;;;;;;;;6.75;2.75;;;;;19.38;46.00;101003.81;5016455;28;45446;-78
2023/12/10 09:03:32;;;;;;;;;8.75;2.50;;;;;19.71;45.47;101021.19;4998748;28;45378;-76
2023/12/10 09:05:58;;;;;;;;;7.00;1.75;;;;;19.82;45.33;101008.44;4998503;28;46706;-79
2023/12/10 09:08:26;;;;;;;;;3.50;2.50;;;;;19.85;45.42;101004.63;5015948;28;45971;-77
2023/12/10 09:10:52;;;;;;;;;4.00;2.25;;;;;20.00;45.23;100997.94;5016066;28;45357;-78
2023/12/10 09:13:17;;;;;;;;;4.75;3.00;;;;;20.01;44.96;100984.19;5017221;28;45399;-78
2023/12/10 09:15:43;;;;;;;;;4.25;2.00;;;;;20.20;44.74;100997.19;5019784;28;45638;-78
2023/12/10 09:18:09;;;;;;;;;3.25;3.25;;;;;20.12;45.24;101009.69;5022694;28;45979;-78
2023/12/10 09:20:34;;;;;;;;;3.00;2.00;;;;;20.00;44.53;100970.72;5008249;28;45522;-79
2023/12/10 09:22:59;;;;;;;;;3.25;2.00;;;;;20.31;44.44;100988.13;5017031;28;45450;-78
2023/12/10 09:25:25;;;;;;;;;5.25;4.00;;;;;20.22;44.73;100965.25;5014158;28;55882;-78
2023/12/10 09:27:50;;;;;;;;;5.75;4.00;;;;;20.41;44.56;100972.81;5015378;28;45349;-77
2023/12/10 09:30:15;;;;;;;;;7.50;4.00;;;;;20.48;44.29;100970.41;5015801;28;50678;-81
2023/12/10 09:32:41;;;;;;;;;4.50;3.00;;;;;20.46;44.27;100948.75;4997516;28;45625;-80
2023/12/10 09:35:06;;;;;;;;;4.75;3.00;;;;;20.34;44.60;100950.63;4995876;28;45438;-80
2023/12/10 09:37:32;;;;;;;;;7.25;2.00;;;;;20.07;44.58;100919.38;5015412;28;47674;-80
2023/12/10 09:39:57;;;;;;;;;5.00;3.50;;;;;20.04;45.00;100934.09;4996633;28;45893;-81
2023/12/10 09:42:22;;;;;;;;;4.25;3.75;;;;;20.13;45.17;100933.34;4997889;28;45548;-77
2023/12/10 09:44:48;;;;;;;;;8.25;4.00;;;;;20.18;44.82;100936.53;4994847;28;45918;-81
2023/12/10 09:47:16;;;;;;;;;4.75;3.50;;;;;20.08;45.48;100945.59;5015770;28;45609;-80
2023/12/10 09:49:42;;;;;;;;;6.00;4.50;;;;;20.03;45.06;100949.56;5016247;28;45345;-78
2023/12/10 09:52:09;;;;;;;;;2.50;1.00;;;;;19.92;45.58;100951.41;5010008;28;45443;-78
2023/12/10 09:54:39;;;;;;;;;4.25;3.00;;;;;19.87;45.98;100943.66;5009205;28;45561;-79
2023/12/10 09:57:05;;;;;;;;;5.00;4.00;;;;;19.75;46.11;100933.75;5015950;28;47110;-81
2023/12/10 09:59:30;;;;;;;;;7.50;4.25;;;;;20.09;45.52;100961.78;4998001;28;45496;-80
2023/12/10 10:01:56;;;;;;;;;3.50;3.00;;;;;19.98;45.50;100935.47;5014202;28;45527;-79
2023/12/10 10:04:22;;;;;;;;;4.50;3.75;;;;;19.89;45.40;100946.25;5014220;28;45404;-76
2023/12/10 10:06:47;;;;;;;;;5.00;3.50;;;;;20.10;45.53;100955.34;5015194;28;56855;-78
2023/12/10 10:09:12;;;;;;;;;9.50;3.75;;;;;20.29;44.90;100960.16;5015815;28;45442;-78
2023/12/10 10:11:38;;;;;;;;;7.25;4.00;;;;;20.25;45.27;100947.78;4998115;28;45432;-78
2023/12/10 10:14:04;;;;;;;;;6.00;4.75;;;;;20.28;45.24;100936.66;5015219;28;45447;-80
2023/12/10 10:16:31;;;;;;;;;9.50;2.75;;;;;20.31;45.06;100925.50;4998929;28;46353;-78
2023/12/10 10:18:58;;;;;;;;;4.00;3.25;;;;;20.36;44.68;100924.16;5015458;28;45423;-77
2023/12/10 10:21:24;;;;;;;;;5.50;2.25;;;;;20.28;44.36;100895.81;5015260;28;45420;-80
2023/12/10 10:23:49;;;;;;;;;4.75;2.00;;;;;20.41;44.31;100896.56;5017080;28;45472;-79
2023/12/10 10:26:14;;;;;;;;;4.00;2.25;;;;;20.52;44.34;100893.75;5020964;28;46002;-79
2023/12/10 10:28:40;;;;;;;;;3.75;2.25;;;;;20.58;43.79;100895.13;5017452;28;59996;-76
2023/12/10 10:31:05;;;;;;;;;2.75;2.75;;;;;20.71;43.59;100891.19;5014356;28;45397;-80
2023/12/10 10:33:31;;;;;;;;;3.75;2.75;;;;;20.23;44.28;100889.88;4998415;28;46657;-77
2023/12/10 10:35:59;;;;;;;;;6.25;2.75;;;;;20.66;43.79;100889.88;5015518;28;46257;-77
2023/12/10 10:38:27;;;;;;;;;4.25;2.50;;;;;20.72;43.10;100876.59;4996548;28;45494;-76
2023/12/10 10:40:53;;;;;;;;;5.75;3.50;;;;;20.53;43.24;100856.50;5015014;28;45404;-76
2023/12/10 10:43:19;;;;;;;;;6.00;3.50;;;;;20.83;43.33;100826.59;5014863;28;45712;-80
2023/12/10 10:45:44;;;;;;;;;2.00;2.00;;;;;21.11;42.44;100846.84;5015146;28;45942;-78
2023/12/10 10:48:12;;;;;;;;;7.00;4.00;;;;;20.30;43.61;100836.66;5014975;28;45313;-78
2023/12/10 10:50:39;;;;;;;;;4.00;2.00;;;;;20.38;43.35;100826.00;5015118;28;45273;-80
2023/12/10 10:53:06;;;;;;;;;5.25;2.75;;;;;20.50;43.51;100814.03;5014747;28;45287;-80
2023/12/10 10:55:32;;;;;;;;;2.75;2.75;;;;;20.26;43.14;100792.47;5014757;28;46167;-79
2023/12/10 10:57:58;;;;;;;;;1.25;1.25;;;;;20.26;43.01;100767.09;5014783;28;45337;-79
2023/12/10 11:00:23;;;;;;;;;5.00;2.00;;;;;20.76;42.62;100819.94;5015055;28;45547;-77
2023/12/10 11:02:53;;;;;;;;;1.50;1.50;;;;;20.30;43.46;100825.75;5014702;28;45667;-77
2023/12/10 11:05:33;;;;;;;;;3.50;3.00;;;;;20.43;43.70;100809.25;5014813;28;45495;-80
2023/12/10 11:07:59;;;;;;;;;5.00;3.00;;;;;20.30;43.45;100764.00;4996155;28;45995;-82
2023/12/10 11:10:25;;;;;;;;;2.25;1.75;;;;;20.61;43.53;100803.06;5013514;28;45329;-77
2023/12/10 11:12:54;;;;;;;;;4.25;1.75;;;;;20.81;42.81;100800.47;5014699;28;45419;-79
2023/12/10 11:15:24;;;;;;;;;1.00;1.00;;;;;20.49;43.40;100786.94;4996563;28;46477;-78
2023/12/10 11:17:59;;;;;;;;;5.50;3.25;;;;;20.10;43.96;100802.06;5014260;28;45231;-78
2023/12/10 11:20:30;;;;;;;;;8.75;3.75;;;;;20.70;43.49;100782.34;5014401;28;45244;-79
2023/12/10 11:22:55;;;;;;;;;4.25;3.00;;;;;20.88;43.20;100775.28;4996328;28;46422;-77
2023/12/10 11:25:21;;;;;;;;;2.75;0.25;;;;;21.06;42.67;100772.78;5014673;28;45865;-77
2023/12/10 11:27:46;;;;;;;;;3.00;3.00;;;;;20.87;43.03;100745.44;5014460;28;45472;-78
2023/12/10 11:30:12;;;;;;;;;3.50;3.00;;;;;20.50;43.15;100766.91;5014500;28;45168;-77
2023/12/10 11:32:38;;;;;;;;;4.50;2.50;;;;;20.87;42.81;100745.44;4996270;28;46592;-79
2023/12/10 11:35:04;;;;;;;;;2.75;2.75;;;;;20.64;43.45;100737.44;5014180;28;46465;-79
2023/12/10 11:37:29;;;;;;;;;7.00;4.00;;;;;20.50;43.82;100754.09;5014920;28;45329;-77
2023/12/10 11:39:54;;;;;;;;;1.25;1.25;;;;;20.74;43.35;100711.13;5017629;28;45268;-77
2023/12/10 11:42:20;;;;;;;;;3.75;1.50;;;;;20.77;43.48;100729.91;5019199;28;49795;-77
2023/12/10 11:44:45;;;;;;;;;4.50;2.50;;;;;21.09;43.02;100731.63;5018922;28;46221;-75
2023/12/10 11:47:11;;;;;;;;;4.75;4.50;;;;;20.85;42.83;100723.75;5000551;28;45590;-79
2023/12/10 11:49:37;;;;;;;;;3.75;1.75;;;;;20.95;42.75;100723.81;5018241;28;45475;-80
2023/12/10 11:52:03;;;;;;;;;4.50;2.00;;;;;21.07;42.85;100718.13;5017815;28;45307;-79
2023/12/10 11:54:29;;;;;;;;;4.00;3.00;;;;;20.90;43.30;100710.59;5017786;28;46216;-79
2023/12/10 11:56:54;;;;;;;;;3.50;1.75;;;;;20.95;42.78;100704.72;5017898;28;45262;-79
2023/12/10 11:59:20;;;;;;;;;5.25;4.00;;;;;21.08;43.09;100710.81;5018765;28;45394;-77
2023/12/10 12:01:46;;;;;;;;;3.50;2.00;;;;;20.59;43.71;100693.38;5017750;28;45423;-75
2023/12/10 12:04:11;;;;;;;;;5.00;3.25;;;;;20.83;43.74;100686.78;5017014;28;46344;-77
2023/12/10 12:06:41;;;;;;;;;7.25;3.75;;;;;20.95;43.81;100675.63;5016872;28;45294;-75
2023/12/10 12:09:08;;;;;;;;;9.25;5.25;;;;;21.07;43.15;100668.19;5016492;28;45306;-78
2023/12/10 12:11:33;;;;;;;;;4.00;3.00;;;;;20.99;43.54;100684.38;5014979;28;46773;-77
2023/12/10 12:14:02;;;;;;;;;3.75;1.75;;;;;21.00;43.53;100683.38;5016348;28;46310;-80
2023/12/10 12:16:27;;;;;;;;;6.75;3.50;;;;;21.08;43.64;100648.97;5016944;28;45174;-78
2023/12/10 12:18:52;;;;;;;;;4.75;3.25;;;;;21.33;43.15;100663.13;5017058;28;50706;-77
2023/12/10 12:21:18;;;;;;;;;4.00;3.00;;;;;21.38;43.07;100669.88;5016580;28;57413;-81
2023/12/10 12:23:43;;;;;;;;;6.00;4.50;;;;;21.14;43.21;100628.47;5016458;28;60264;-80
2023/12/10 12:26:08;;;;;;;;;2.00;2.00;;;;;21.06;43.81;100637.34;5016124;28;56522;-77
2023/12/10 12:28:33;;;;;;;;;2.25;2.00;;;;;21.17;43.60;100638.25;5016870;28;55736;-77
2023/12/10 12:30:59;;;;;;;;;6.50;3.50;;;;;21.14;43.42;100631.19;5014893;28;60857;-78
2023/12/10 12:33:29;;;;;;;;;7.00;3.75;;;;;21.11;44.04;100628.72;5016337;28;45446;-82
2023/12/10 12:35:55;;;;;;;;;4.25;2.25;;;;;21.23;43.83;100594.06;4995865;28;45559;-82
2023/12/10 12:38:20;;;;;;;;;8.75;5.00;;;;;21.08;44.03;100577.25;5018135;28;45462;-82
2023/12/10 12:40:46;;;;;;;;;7.00;4.00;;;;;20.27;46.45;100524.66;5018369;28;45408;-78
2023/12/10 12:43:11;;;;;;;;;4.00;4.00;;;;;20.75;46.20;100581.19;5016657;28;46191;-75
2023/12/10 12:45:37;;;;;;;;;5.00;3.75;;;;;20.97;45.81;100558.28;5015707;28;46537;-77
2023/12/10 12:48:02;;;;;;;;;2.00;1.75;;;;;20.51;46.39;100532.50;5016933;28;45216;-77
2023/12/10 12:50:28;;;;;;;;;9.50;4.00;;;;;21.00;46.40;100544.38;5011093;28;45586;-78
2023/12/10 12:52:53;;;;;;;;;3.75;3.00;;;;;21.14;45.65;100536.63;4997226;28;46819;-79
2023/12/10 12:55:21;;;;;;;;;4.25;4.25;;;;;20.97;46.33;100514.69;5016500;28;45376;-81
2023/12/10 12:57:46;;;;;;;;;5.25;2.00;;;;;21.25;46.35;100534.81;5016481;28;45400;-77
2023/12/10 13:00:14;;;;;;;;;6.00;5.25;;;;;21.15;45.86;100519.28;5016295;28;45530;-76
2023/12/10 13:02:40;;;;;;;;;14.00;7.00;;;;;21.21;46.03;100506.09;4999011;28;46215;-82
2023/12/10 13:05:05;;;;;;;;;5.25;3.75;;;;;21.00;46.33;100528.03;5016126;28;45309;-80
2023/12/10 13:07:31;;;;;;;;;4.75;3.75;;;;;21.09;46.37;100529.91;5016470;28;45601;-79
2023/12/10 13:09:56;;;;;;;;;8.00;3.00;;;;;20.93;46.54;100515.94;5015384;28;45598;-81
2023/12/10 13:12:21;;;;;;;;;11.00;3.25;;;;;20.74;46.51;100484.97;4995062;28;48150;-83
2023/12/10 13:14:47;;;;;;;;;3.75;2.00;;;;;20.99;46.53;100516.25;5015900;28;45549;-81
2023/12/10 13:17:12;;;;;;;;;2.50;1.00;;;;;21.18;46.28;100537.22;5021143;28;45490;-79
2023/12/10 13:19:37;;;;;;;;;5.00;4.00;;;;;20.98;46.29;100513.69;4990457;28;46106;-80
2023/12/10 13:22:03;;;;;;;;;4.50;3.00;;;;;21.04;45.94;100492.16;5017872;28;46277;-80
2023/12/10 13:24:28;;;;;;;;;5.50;3.75;;;;;21.17;45.98;100511.00;5014151;28;54053;-80
2023/12/10 13:26:53;;;;;;;;;8.00;4.00;;;;;20.61;46.58;100478.06;5016165;28;45278;-81
2023/12/10 13:29:19;;;;;;;;;4.50;2.75;;;;;20.42;46.75;100467.13;4997547;28;51193;-81
2023/12/10 13:31:45;;;;;;;;;6.00;1.00;;;;;20.94;46.46;100491.28;5018946;28;45468;-81
2023/12/10 13:34:10;;;;;;;;;5.75;4.00;;;;;20.63;46.26;100476.94;5015831;28;45751;-81
2023/12/10 13:36:36;;;;;;;;;3.00;1.00;;;;;20.51;46.28;100433.59;5015439;28;50180;-82
2023/12/10 13:39:03;;;;;;;;;2.00;2.00;;;;;20.81;46.35;100471.63;4984628;28;45804;-83
2023/12/10 13:41:28;;;;;;;;;9.50;2.75;;;;;20.95;46.40;100492.16;5015728;28;46351;-80
2023/12/10 13:43:54;;;;;;;;;3.00;3.00;;;;;20.88;45.96;100447.41;5014538;28;45522;-83
2023/12/10 13:46:19;;;;;;;;;3.25;2.00;;;;;20.81;46.35;100481.69;4995892;28;45396;-82
2023/12/10 13:48:44;;;;;;;;;10.25;5.00;;;;;20.73;46.13;100475.09;5014224;28;45384;-82
2023/12/10 13:51:12;;;;;;;;;5.25;2.75;;;;;20.88;46.30;100470.06;5022284;28;46129;-87
2023/12/10 13:53:38;;;;;;;;;3.25;3.25;;;;;20.58;47.49;100465.59;4985023;28;45361;-81
2023/12/10 13:56:04;;;;;;;;;6.25;4.00;;;;;20.83;46.88;100455.16;4978664;28;45264;-77
2023/12/10 13:58:29;;;;;;;;;6.50;3.50;;;;;20.41;47.97;100443.66;5015913;28;45566;-81
2023/12/10 14:00:54;;;;;;;;;3.25;3.00;;;;;20.04;47.91;100411.56;5016233;28;46014;-78
2023/12/10 14:03:20;;;;;;;;;7.00;3.25;;;;;20.26;47.71;100378.66;5012193;28;45448;-82
2023/12/10 14:05:45;;;;;;;;;5.25;3.00;;;;;20.32;47.39;100363.63;5013206;28;45462;-82
2023/12/10 14:08:11;;;;;;;;;6.75;3.75;;;;;20.37;47.55;100359.50;5014403;28;45384;-80
2023/12/10 14:10:36;;;;;;;;;4.25;2.25;;;;;20.56;48.13;100372.28;5012431;28;46163;-82
2023/12/10 14:13:02;;;;;;;;;4.00;4.00;;;;;20.27;48.80;100338.69;5015081;28;45235;-83
2023/12/10 14:15:27;;;;;;;;;6.25;1.75;;;;;20.29;48.96;100323.94;4992798;28;45487;-82
2023/12/10 14:17:52;;;;;;;;;8.25;4.00;;;;;20.59;49.07;100366.53;5014388;28;45563;-81
2023/12/10 14:20:17;;;;;;;;;6.25;3.00;;;;;20.45;49.64;100374.25;5015474;28;45393;-82
2023/12/10 14:22:43;;;;;;;;;3.75;2.00;;;;;20.01;50.10;100330.19;4997628;28;45431;-84
2023/12/10 14:25:08;;;;;;;;;3.50;1.75;;;;;20.00;50.66;100337.50;5015952;28;45519;-82
2023/12/10 14:27:34;;;;;;;;;5.00;2.75;;;;;19.96;50.58;100318.88;5000986;28;45582;-81
2023/12/10 14:29:59;;;;;;;;;7.25;3.25;;;;;19.77;50.46;100264.44;5014671;28;46085;-82
2023/12/10 14:32:25;;;;;;;;;5.75;3.50;;;;;20.16;49.99;100322.50;4996850;28;45653;-82
2023/12/10 14:34:50;;;;;;;;;2.00;2.00;;;;;19.89;49.97;100260.59;5018245;28;45448;-83
2023/12/10 14:37:15;;;;;;;;;4.00;3.00;;;;;19.82;50.65;100278.50;5020078;28;45416;-82
2023/12/10 14:39:41;;;;;;;;;3.00;1.75;;;;;19.74;50.57;100248.38;5002566;28;46298;-84
2023/12/10 14:42:07;;;;;;;;;5.25;3.50;;;;;20.37;50.19;100317.81;5018117;28;45564;-82
2023/12/10 14:44:33;;;;;;;;;6.25;2.50;;;;;19.87;50.26;100221.78;5025641;28;45309;-82
2023/12/10 14:46:58;;;;;;;;;3.00;3.00;;;;;20.13;49.66;100250.16;5028642;28;45281;-83
2023/12/10 14:49:25;;;;;;;;;4.00;3.00;;;;;19.85;49.66;100191.13;5025599;28;45613;-82
2023/12/10 14:51:51;;;;;;;;;3.75;3.50;;;;;19.77;50.56;100215.47;4993683;28;45321;-81
2023/12/10 14:54:16;;;;;;;;;5.50;3.75;;;;;19.59;50.79;100218.03;5020061;28;45274;-85
2023/12/10 14:56:42;;;;;;;;;2.25;2.25;;;;;19.94;50.42;100240.13;5019680;28;45434;-83
2023/12/10 14:59:07;;;;;;;;;4.00;3.00;;;;;19.59;50.42;100188.97;5024386;28;45411;-83
2023/12/10 15:01:33;;;;;;;;;5.75;3.75;;;;;20.09;50.37;100256.88;4999827;28;45820;-81
2023/12/10 15:04:00;;;;;;;;;3.00;3.00;;;;;20.12;50.83;100269.34;5001259;28;45694;-81
2023/12/10 15:06:27;;;;;;;;;1.00;1.00;;;;;19.69;51.36;100245.25;5019785;28;45511;-85
2023/12/10 15:08:52;;;;;;;;;7.50;3.00;;;;;19.79;50.57;100208.03;4997433;28;47372;-83
2023/12/10 15:11:18;;;;;;;;;1.00;0.00;;;;;20.27;50.43;100251.56;5015853;28;45424;-83
2023/12/10 15:13:43;;;;;;;;;1.25;1.25;;;;;19.84;51.27;100222.91;4998180;28;45371;-78
2023/12/10 15:16:09;;;;;;;;;2.75;2.75;;;;;19.79;51.95;100237.97;5012279;28;55009;-83
2023/12/10 15:18:34;;;;;;;;;2.00;2.00;;;;;19.36;52.69;100227.41;4985720;28;47960;-85
2023/12/10 15:21:00;;;;;;;;;3.00;1.50;;;;;19.47;51.96;100160.22;5015170;28;45452;-84
2023/12/10 15:23:25;;;;;;;;;4.75;1.75;;;;;19.57;52.14;100166.50;5016860;28;45427;-85
2023/12/10 15:25:51;;;;;;;;;2.00;1.00;;;;;19.59;52.22;100186.25;5016035;28;45494;-84
2023/12/10 15:28:16;;;;;;;;;3.50;1.25;;;;;19.47;52.43;100157.50;5015575;28;45324;-84
2023/12/10 15:30:41;;;;;;;;;2.00;0.00;;;;;19.54;52.63;100199.44;5015195;28;45541;-84
2023/12/10 15:33:07;;;;;;;;;2.25;1.25;;;;;19.89;52.48;100230.66;5014971;28;45467;-84
2023/12/10 15:35:32;;;;;;;;;2.25;2.00;;;;;19.61;52.64;100192.41;5015447;28;45481;-83
2023/12/10 15:37:58;;;;;;;;;2.75;1.00;;;;;19.72;52.27;100218.63;5015147;28;45482;-83
2023/12/10 15:40:24;;;;;;;;;1.75;1.00;;;;;20.18;51.61;100217.03;4996991;28;49754;-81
2023/12/10 15:42:49;;;;;;;;;3.75;3.75;;;;;19.94;51.82;100185.69;4997450;28;45380;-85
2023/12/10 15:45:17;;;;;;;;;2.75;2.75;;;;;19.60;52.88;100192.56;4997349;28;45451;-84
2023/12/10 15:47:42;;;;;;;;;1.00;1.00;;;;;19.64;52.69;100145.06;4977645;28;46075;-84
2023/12/10 15:50:08;;;;;;;;;2.00;2.00;;;;;19.55;52.74;100137.75;5012626;28;45353;-84
2023/12/10 15:52:34;;;;;;;;;3.50;1.00;;;;;19.78;52.65;100168.22;4997348;28;45486;-82
2023/12/10 15:54:59;;;;;;;;;6.00;2.75;;;;;19.61;52.71;100150.75;5014953;28;45597;-85
2023/12/10 15:57:25;;;;;;;;;3.25;2.50;;;;;19.79;52.67;100159.06;5015817;28;46134;-85
2023/12/10 15:59:50;;;;;;;;;0.50;0.50;;;;;19.98;52.54;100202.59;5015721;28;45313;-83
2023/12/10 16:02:17;;;;;;;;;1.75;1.00;;;;;19.67;52.85;100155.63;5015920;28;45454;-85
2023/12/10 16:04:42;;;;;;;;;3.00;1.00;;;;;19.83;52.97;100136.00;5014810;28;46630;-84
2023/12/10 16:07:08;;;;;;;;;2.00;1.00;;;;;20.24;52.40;100175.66;4996790;28;45574;-86
2023/12/10 16:09:34;;;;;;;;;2.50;1.00;;;;;19.64;52.84;100105.13;4997935;28;45390;-85
2023/12/10 16:12:00;;;;;;;;;0.00;0.00;;;;;19.93;53.02;100175.81;5015921;28;45481;-84
2023/12/10 16:14:25;;;;;;;;;0.25;0.25;;;;;19.96;52.99;100182.84;5016216;28;45495;-86
2023/12/10 16:16:50;;;;;;;;;3.00;2.00;;;;;20.05;52.61;100145.75;5013068;28;45540;-85
2023/12/10 16:19:16;;;;;;;;;1.75;1.25;;;;;20.13;52.38;100149.44;5023274;28;45386;-83